Terminal Aerodrome Forecast
Issued by NWS Upton, NY

Home | Current Version | Previous Version | Text Only | Print | Product List | Glossary On
Versions: 1 2 3 4 5 6 7 8 9 10 11 12 13 14 15 16 17 18 19 20 21 22 23 24 25 26 27 28 29 30 31 32 33
000
FTUS41 KOKX 231731
TAFJFK
TAF
KJFK 231731Z 2318/2424 VRB03KT P6SM BKN150
     FM231900 18008KT P6SM BKN150
     FM240300 VRB04KT P6SM BKN120
     FM240700 03008KT 5SM -RA BKN040 OVC100
     FM241200 05010G17KT 5SM -RA OVC025
     FM241500 02009KT P6SM -SHRA BKN040 OVC100
     FM241800 36010KT P6SM OVC050=

USA.gov is the U.S. government's official web portal to all federal, state and local government web resources and services.